ウィーン の空港の天気 - METARとTAF

ウィーン国際空港 ( LOWW / VIE ) - オーストリア ウィーン
飛行場実況気象(Metar)
観測時間06/17 21:20 CEST (06/17 19:20 UTC)
風向・風速北 2m/s
視程10km以上
天気現象
なし
気温21℃
湿度64%
気圧1018hPa
METARLOWW 171920Z 01004KT CAVOK 21/14 Q1018 NOSIG
過去の天気等 Google飛行場航空写真 Wunderground天気予報

過去48時間のMETAR

飛行場予報(TAF)
発表時間: 6/17 19:15 CEST (6/17 17:15 UTC)
予報対象時間: 17日20時 CEST ~ 19日2時 CEST
風向・風速北 4m/s
視程10km以上
なし
18日11時 CEST から
風向・風速東 3m/s
視程10km以上
少しの雲 雲底高度 1370m
18日17時 CEST から
風向・風速南東 4m/s
視程10km以上
なし
TAF LOWW 171715Z 1718/1824 35007KT CAVOK TX28/1815Z TN16/1803Z
FM180900 10006KT 9999 FEW045
FM181500 14007KT CAVOK